Terminal Aerodrome Forecast
Issued by NWS

Home | Current Version | Previous Version | Text Only | Print | Product List | Glossary On
Versions: 1 2 3 4 5 6 7 8 9 10 11 12 13 14 15 16
000
FTUS44 KSJT 252345
TAFSOA
TAF
KSOA 252345Z 2600/2624 02010KT P6SM BKN035
     FM260200 03011G16KT P6SM SHRA OVC005
     FM260800 03010KT P6SM VCSH BKN008
     FM261500 03011G20KT P6SM VCSH BKN012=

USA.gov is the U.S. government's official web portal to all federal, state and local government web resources and services.